sensor_id;sensor_type;location;lat;lon;timestamp;temperature;humidity
4578;DHT22;2301;47.354;8.528;2022-07-03T00:01:35;22.40;81.60
4578;DHT22;2301;47.354;8.528;2022-07-03T00:04:02;22.40;81.70
4578;DHT22;2301;47.354;8.528;2022-07-03T00:06:30;22.30;81.70
4578;DHT22;2301;47.354;8.528;2022-07-03T00:08:58;22.30;81.80
4578;DHT22;2301;47.354;8.528;2022-07-03T00:11:25;22.30;82.00
4578;DHT22;2301;47.354;8.528;2022-07-03T00:13:52;22.30;82.00
4578;DHT22;2301;47.354;8.528;2022-07-03T00:16:20;22.30;82.00
4578;DHT22;2301;47.354;8.528;2022-07-03T00:18:47;22.30;82.30
4578;DHT22;2301;47.354;8.528;2022-07-03T00:21:19;22.30;82.40
4578;DHT22;2301;47.354;8.528;2022-07-03T00:23:52;22.30;82.30
4578;DHT22;2301;47.354;8.528;2022-07-03T00:26:21;22.20;82.30
4578;DHT22;2301;47.354;8.528;2022-07-03T00:28:49;22.20;82.70
4578;DHT22;2301;47.354;8.528;2022-07-03T00:31:16;22.20;82.70
4578;DHT22;2301;47.354;8.528;2022-07-03T00:33:45;22.20;82.80
4578;DHT22;2301;47.354;8.528;2022-07-03T00:36:12;22.10;82.90
4578;DHT22;2301;47.354;8.528;2022-07-03T00:38:40;22.10;83.10
4578;DHT22;2301;47.354;8.528;2022-07-03T00:41:25;22.10;83.10
4578;DHT22;2301;47.354;8.528;2022-07-03T00:43:52;22.10;83.20
4578;DHT22;2301;47.354;8.528;2022-07-03T00:46:21;22.10;83.40
4578;DHT22;2301;47.354;8.528;2022-07-03T00:48:51;22.00;83.50
4578;DHT22;2301;47.354;8.528;2022-07-03T00:51:23;22.10;83.60
4578;DHT22;2301;47.354;8.528;2022-07-03T00:53:51;22.00;83.60
4578;DHT22;2301;47.354;8.528;2022-07-03T00:56:22;22.10;83.70
4578;DHT22;2301;47.354;8.528;2022-07-03T00:58:52;22.00;83.70
4578;DHT22;2301;47.354;8.528;2022-07-03T01:01:20;22.00;83.90
4578;DHT22;2301;47.354;8.528;2022-07-03T01:03:52;22.00;84.70
4578;DHT22;2301;47.354;8.528;2022-07-03T01:06:24;22.00;83.90
4578;DHT22;2301;47.354;8.528;2022-07-03T01:08:51;22.00;83.90
4578;DHT22;2301;47.354;8.528;2022-07-03T01:11:27;22.00;83.90
4578;DHT22;2301;47.354;8.528;2022-07-03T01:14:08;22.00;83.70
4578;DHT22;2301;47.354;8.528;2022-07-03T01:16:51;22.00;83.60
4578;DHT22;2301;47.354;8.528;2022-07-03T01:19:34;22.00;83.50
4578;DHT22;2301;47.354;8.528;2022-07-03T01:22:14;22.00;83.70
4578;DHT22;2301;47.354;8.528;2022-07-03T01:24:56;22.00;83.70
4578;DHT22;2301;47.354;8.528;2022-07-03T01:27:34;22.00;83.60
4578;DHT22;2301;47.354;8.528;2022-07-03T01:30:05;21.90;83.70
4578;DHT22;2301;47.354;8.528;2022-07-03T01:32:35;21.90;83.70
4578;DHT22;2301;47.354;8.528;2022-07-03T01:35:07;21.90;84.00
4578;DHT22;2301;47.354;8.528;2022-07-03T01:37:35;21.90;84.00
4578;DHT22;2301;47.354;8.528;2022-07-03T01:40:05;21.90;84.00
4578;DHT22;2301;47.354;8.528;2022-07-03T01:42:35;21.90;84.10
4578;DHT22;2301;47.354;8.528;2022-07-03T01:45:08;21.90;84.30
4578;DHT22;2301;47.354;8.528;2022-07-03T01:47:37;21.80;84.40
4578;DHT22;2301;47.354;8.528;2022-07-03T01:50:07;21.80;84.50
4578;DHT22;2301;47.354;8.528;2022-07-03T01:52:37;21.80;84.50
4578;DHT22;2301;47.354;8.528;2022-07-03T01:55:08;21.80;84.50
4578;DHT22;2301;47.354;8.528;2022-07-03T01:57:41;21.80;85.40
4578;DHT22;2301;47.354;8.528;2022-07-03T02:00:10;21.80;84.80
4578;DHT22;2301;47.354;8.528;2022-07-03T02:02:42;21.80;84.80
4578;DHT22;2301;47.354;8.528;2022-07-03T02:05:17;21.80;84.80
4578;DHT22;2301;47.354;8.528;2022-07-03T02:07:50;21.80;85.00
4578;DHT22;2301;47.354;8.528;2022-07-03T02:10:26;21.70;85.00
4578;DHT22;2301;47.354;8.528;2022-07-03T02:13:00;21.70;85.00
4578;DHT22;2301;47.354;8.528;2022-07-03T02:15:30;21.70;85.10
4578;DHT22;2301;47.354;8.528;2022-07-03T02:18:02;21.70;85.10
4578;DHT22;2301;47.354;8.528;2022-07-03T02:20:35;21.70;85.20
4578;DHT22;2301;47.354;8.528;2022-07-03T02:23:03;21.60;85.20
4578;DHT22;2301;47.354;8.528;2022-07-03T02:25:34;21.60;85.20
4578;DHT22;2301;47.354;8.528;2022-07-03T02:28:04;21.60;85.30
4578;DHT22;2301;47.354;8.528;2022-07-03T02:30:35;21.60;85.40
4578;DHT22;2301;47.354;8.528;2022-07-03T02:33:04;21.60;85.50
4578;DHT22;2301;47.354;8.528;2022-07-03T02:35:34;21.60;85.50
4578;DHT22;2301;47.354;8.528;2022-07-03T02:38:04;21.60;85.60
4578;DHT22;2301;47.354;8.528;2022-07-03T02:40:39;21.50;85.50
4578;DHT22;2301;47.354;8.528;2022-07-03T02:43:21;21.50;85.60
4578;DHT22;2301;47.354;8.528;2022-07-03T02:46:04;21.50;85.70
4578;DHT22;2301;47.354;8.528;2022-07-03T02:48:57;21.50;85.70
4578;DHT22;2301;47.354;8.528;2022-07-03T02:51:33;21.50;86.60
4578;DHT22;2301;47.354;8.528;2022-07-03T02:54:09;21.40;85.80
4578;DHT22;2301;47.354;8.528;2022-07-03T02:56:43;21.40;86.00
4578;DHT22;2301;47.354;8.528;2022-07-03T02:59:22;21.40;86.30
4578;DHT22;2301;47.354;8.528;2022-07-03T03:01:57;21.40;86.30
4578;DHT22;2301;47.354;8.528;2022-07-03T03:04:29;21.40;86.30
4578;DHT22;2301;47.354;8.528;2022-07-03T03:07:02;21.40;86.30
4578;DHT22;2301;47.354;8.528;2022-07-03T03:09:40;21.40;86.40
4578;DHT22;2301;47.354;8.528;2022-07-03T03:12:08;21.30;86.30
4578;DHT22;2301;47.354;8.528;2022-07-03T03:14:38;21.30;86.30
4578;DHT22;2301;47.354;8.528;2022-07-03T03:17:06;21.30;86.30
4578;DHT22;2301;47.354;8.528;2022-07-03T03:19:40;21.30;86.30
4578;DHT22;2301;47.354;8.528;2022-07-03T03:22:16;21.30;86.20
4578;DHT22;2301;47.354;8.528;2022-07-03T03:24:47;21.30;86.30
4578;DHT22;2301;47.354;8.528;2022-07-03T03:27:14;21.20;86.20
4578;DHT22;2301;47.354;8.528;2022-07-03T03:29:43;21.20;86.20
4578;DHT22;2301;47.354;8.528;2022-07-03T03:32:11;21.20;86.30
4578;DHT22;2301;47.354;8.528;2022-07-03T03:34:39;21.20;86.30
4578;DHT22;2301;47.354;8.528;2022-07-03T03:37:08;21.20;86.40
4578;DHT22;2301;47.354;8.528;2022-07-03T03:39:35;21.20;86.30
4578;DHT22;2301;47.354;8.528;2022-07-03T03:42:03;21.10;86.30
4578;DHT22;2301;47.354;8.528;2022-07-03T03:44:30;21.10;86.50
4578;DHT22;2301;47.354;8.528;2022-07-03T03:46:59;21.10;86.60
4578;DHT22;2301;47.354;8.528;2022-07-03T03:49:26;21.10;86.70
4578;DHT22;2301;47.354;8.528;2022-07-03T03:51:55;21.10;86.70
4578;DHT22;2301;47.354;8.528;2022-07-03T03:54:22;21.10;86.80
4578;DHT22;2301;47.354;8.528;2022-07-03T03:56:49;21.10;86.80
4578;DHT22;2301;47.354;8.528;2022-07-03T03:59:16;21.00;85.80
4578;DHT22;2301;47.354;8.528;2022-07-03T04:01:43;20.90;85.40
4578;DHT22;2301;47.354;8.528;2022-07-03T04:04:13;20.80;85.40
4578;DHT22;2301;47.354;8.528;2022-07-03T04:06:43;20.70;85.60
4578;DHT22;2301;47.354;8.528;2022-07-03T04:09:09;20.60;85.70
4578;DHT22;2301;47.354;8.528;2022-07-03T04:11:37;20.50;86.00
4578;DHT22;2301;47.354;8.528;2022-07-03T04:14:04;20.40;86.20
4578;DHT22;2301;47.354;8.528;2022-07-03T04:16:31;20.30;86.40
4578;DHT22;2301;47.354;8.528;2022-07-03T04:18:59;20.30;86.70
4578;DHT22;2301;47.354;8.528;2022-07-03T04:21:28;20.20;87.00
4578;DHT22;2301;47.354;8.528;2022-07-03T04:23:55;20.20;87.30
4578;DHT22;2301;47.354;8.528;2022-07-03T04:26:22;20.10;87.50
4578;DHT22;2301;47.354;8.528;2022-07-03T04:28:48;20.10;87.70
4578;DHT22;2301;47.354;8.528;2022-07-03T04:31:15;20.00;87.80
4578;DHT22;2301;47.354;8.528;2022-07-03T04:33:42;20.00;88.10
4578;DHT22;2301;47.354;8.528;2022-07-03T04:36:09;20.00;88.20
4578;DHT22;2301;47.354;8.528;2022-07-03T04:38:38;20.00;88.50
4578;DHT22;2301;47.354;8.528;2022-07-03T04:41:04;19.90;88.60
4578;DHT22;2301;47.354;8.528;2022-07-03T04:43:31;19.90;88.80
4578;DHT22;2301;47.354;8.528;2022-07-03T04:45:58;19.90;89.00
4578;DHT22;2301;47.354;8.528;2022-07-03T04:48:27;19.90;89.20
4578;DHT22;2301;47.354;8.528;2022-07-03T04:50:54;19.90;89.60
4578;DHT22;2301;47.354;8.528;2022-07-03T04:53:21;19.90;89.70
4578;DHT22;2301;47.354;8.528;2022-07-03T04:55:50;19.80;89.70
4578;DHT22;2301;47.354;8.528;2022-07-03T04:58:18;19.80;90.00
4578;DHT22;2301;47.354;8.528;2022-07-03T05:00:45;19.80;90.10
4578;DHT22;2301;47.354;8.528;2022-07-03T05:03:12;19.80;90.10
4578;DHT22;2301;47.354;8.528;2022-07-03T05:05:39;19.90;90.20
4578;DHT22;2301;47.354;8.528;2022-07-03T05:08:06;19.90;90.30
4578;DHT22;2301;47.354;8.528;2022-07-03T05:10:33;19.90;90.20
4578;DHT22;2301;47.354;8.528;2022-07-03T05:13:02;19.90;90.20
4578;DHT22;2301;47.354;8.528;2022-07-03T05:15:29;19.90;90.30
4578;DHT22;2301;47.354;8.528;2022-07-03T05:17:56;19.90;90.30
4578;DHT22;2301;47.354;8.528;2022-07-03T05:20:22;19.90;90.40
4578;DHT22;2301;47.354;8.528;2022-07-03T05:22:54;20.00;90.40
4578;DHT22;2301;47.354;8.528;2022-07-03T05:25:22;20.00;90.40
4578;DHT22;2301;47.354;8.528;2022-07-03T05:27:49;20.00;90.30
4578;DHT22;2301;47.354;8.528;2022-07-03T05:30:20;20.10;90.40
4578;DHT22;2301;47.354;8.528;2022-07-03T05:32:47;20.10;90.30
4578;DHT22;2301;47.354;8.528;2022-07-03T05:35:14;20.20;90.20
4578;DHT22;2301;47.354;8.528;2022-07-03T05:37:41;20.20;90.30
4578;DHT22;2301;47.354;8.528;2022-07-03T05:40:09;20.30;90.70
4578;DHT22;2301;47.354;8.528;2022-07-03T05:42:36;20.30;90.80
4578;DHT22;2301;47.354;8.528;2022-07-03T05:45:03;20.40;90.70
4578;DHT22;2301;47.354;8.528;2022-07-03T05:47:32;20.50;90.90
4578;DHT22;2301;47.354;8.528;2022-07-03T05:49:59;20.50;91.10
4578;DHT22;2301;47.354;8.528;2022-07-03T05:52:25;20.60;91.10
4578;DHT22;2301;47.354;8.528;2022-07-03T05:54:53;20.60;91.20
4578;DHT22;2301;47.354;8.528;2022-07-03T05:57:20;20.70;91.20
4578;DHT22;2301;47.354;8.528;2022-07-03T05:59:47;20.70;91.20
4578;DHT22;2301;47.354;8.528;2022-07-03T06:02:14;20.80;91.30
4578;DHT22;2301;47.354;8.528;2022-07-03T06:04:42;20.90;91.30
4578;DHT22;2301;47.354;8.528;2022-07-03T06:07:09;20.90;91.30
4578;DHT22;2301;47.354;8.528;2022-07-03T06:09:36;21.00;91.30
4578;DHT22;2301;47.354;8.528;2022-07-03T06:12:04;21.00;91.30
4578;DHT22;2301;47.354;8.528;2022-07-03T06:14:31;21.10;91.70
4578;DHT22;2301;47.354;8.528;2022-07-03T06:16:58;21.10;91.90
4578;DHT22;2301;47.354;8.528;2022-07-03T06:19:25;21.20;92.10
4578;DHT22;2301;47.354;8.528;2022-07-03T06:21:53;21.20;92.20
4578;DHT22;2301;47.354;8.528;2022-07-03T06:24:20;21.30;92.10
4578;DHT22;2301;47.354;8.528;2022-07-03T06:26:47;21.40;92.10
4578;DHT22;2301;47.354;8.528;2022-07-03T06:29:13;21.50;92.20
4578;DHT22;2301;47.354;8.528;2022-07-03T06:31:40;21.50;92.20
4578;DHT22;2301;47.354;8.528;2022-07-03T06:34:07;21.60;92.20
4578;DHT22;2301;47.354;8.528;2022-07-03T06:36:34;21.70;92.30
4578;DHT22;2301;47.354;8.528;2022-07-03T06:39:02;21.80;91.70
4578;DHT22;2301;47.354;8.528;2022-07-03T06:41:29;21.90;91.50
4578;DHT22;2301;47.354;8.528;2022-07-03T06:43:56;22.10;91.30
4578;DHT22;2301;47.354;8.528;2022-07-03T06:46:23;22.30;91.20
4578;DHT22;2301;47.354;8.528;2022-07-03T06:48:50;22.40;90.70
4578;DHT22;2301;47.354;8.528;2022-07-03T06:51:17;22.50;90.20
4578;DHT22;2301;47.354;8.528;2022-07-03T06:53:44;22.70;90.20
4578;DHT22;2301;47.354;8.528;2022-07-03T06:56:12;22.90;89.10
4578;DHT22;2301;47.354;8.528;2022-07-03T06:58:39;23.00;87.50
4578;DHT22;2301;47.354;8.528;2022-07-03T07:01:05;23.20;86.90
4578;DHT22;2301;47.354;8.528;2022-07-03T07:03:32;23.30;85.70
4578;DHT22;2301;47.354;8.528;2022-07-03T07:05:59;23.50;84.90
4578;DHT22;2301;47.354;8.528;2022-07-03T07:08:27;23.70;83.80
4578;DHT22;2301;47.354;8.528;2022-07-03T07:10:54;23.80;82.80
4578;DHT22;2301;47.354;8.528;2022-07-03T07:13:23;24.00;82.10
4578;DHT22;2301;47.354;8.528;2022-07-03T07:15:49;24.10;82.00
4578;DHT22;2301;47.354;8.528;2022-07-03T07:18:16;24.30;81.00
4578;DHT22;2301;47.354;8.528;2022-07-03T07:20:43;24.40;80.90
4578;DHT22;2301;47.354;8.528;2022-07-03T07:23:10;24.60;81.00
4578;DHT22;2301;47.354;8.528;2022-07-03T07:25:37;24.70;79.80
4578;DHT22;2301;47.354;8.528;2022-07-03T07:28:04;24.80;77.90
4578;DHT22;2301;47.354;8.528;2022-07-03T07:30:32;24.90;78.00
4578;DHT22;2301;47.354;8.528;2022-07-03T07:32:59;25.10;76.50
4578;DHT22;2301;47.354;8.528;2022-07-03T07:35:26;25.20;76.30
4578;DHT22;2301;47.354;8.528;2022-07-03T07:37:53;25.30;75.60
4578;DHT22;2301;47.354;8.528;2022-07-03T07:40:20;25.50;74.60
4578;DHT22;2301;47.354;8.528;2022-07-03T07:42:46;25.60;73.80
4578;DHT22;2301;47.354;8.528;2022-07-03T07:45:13;25.70;71.40
4578;DHT22;2301;47.354;8.528;2022-07-03T07:47:42;25.80;69.90
4578;DHT22;2301;47.354;8.528;2022-07-03T07:50:09;25.90;67.20
4578;DHT22;2301;47.354;8.528;2022-07-03T07:52:37;26.00;66.80
4578;DHT22;2301;47.354;8.528;2022-07-03T07:55:05;26.20;65.60
4578;DHT22;2301;47.354;8.528;2022-07-03T07:57:35;26.30;64.50
4578;DHT22;2301;47.354;8.528;2022-07-03T08:00:07;26.40;65.00
4578;DHT22;2301;47.354;8.528;2022-07-03T08:02:34;26.60;63.70
4578;DHT22;2301;47.354;8.528;2022-07-03T08:05:20;26.70;63.20
4578;DHT22;2301;47.354;8.528;2022-07-03T08:08:04;26.80;63.60
4578;DHT22;2301;47.354;8.528;2022-07-03T08:10:34;26.90;64.20
4578;DHT22;2301;47.354;8.528;2022-07-03T08:13:02;27.10;63.00
4578;DHT22;2301;47.354;8.528;2022-07-03T08:15:29;27.20;62.60
4578;DHT22;2301;47.354;8.528;2022-07-03T08:17:56;27.40;61.60
4578;DHT22;2301;47.354;8.528;2022-07-03T08:20:24;27.50;61.00
4578;DHT22;2301;47.354;8.528;2022-07-03T08:22:51;27.70;61.00
4578;DHT22;2301;47.354;8.528;2022-07-03T08:25:18;27.90;60.80
4578;DHT22;2301;47.354;8.528;2022-07-03T08:27:45;28.10;61.10
4578;DHT22;2301;47.354;8.528;2022-07-03T08:30:12;28.30;60.70
4578;DHT22;2301;47.354;8.528;2022-07-03T08:32:43;28.50;58.50
4578;DHT22;2301;47.354;8.528;2022-07-03T08:35:10;28.60;57.60
4578;DHT22;2301;47.354;8.528;2022-07-03T08:37:39;28.80;57.50
4578;DHT22;2301;47.354;8.528;2022-07-03T08:40:09;29.00;56.70
4578;DHT22;2301;47.354;8.528;2022-07-03T08:42:37;29.20;55.80
4578;DHT22;2301;47.354;8.528;2022-07-03T08:45:07;29.30;54.30
4578;DHT22;2301;47.354;8.528;2022-07-03T08:47:36;29.50;55.10
4578;DHT22;2301;47.354;8.528;2022-07-03T08:50:05;29.70;54.10
4578;DHT22;2301;47.354;8.528;2022-07-03T08:52:33;29.70;52.10
4578;DHT22;2301;47.354;8.528;2022-07-03T08:55:02;29.90;51.40
4578;DHT22;2301;47.354;8.528;2022-07-03T08:57:30;30.10;50.00
4578;DHT22;2301;47.354;8.528;2022-07-03T08:59:59;30.30;49.30
4578;DHT22;2301;47.354;8.528;2022-07-03T09:02:27;30.50;48.70
4578;DHT22;2301;47.354;8.528;2022-07-03T09:04:55;30.70;47.90
4578;DHT22;2301;47.354;8.528;2022-07-03T09:07:24;30.80;47.00
4578;DHT22;2301;47.354;8.528;2022-07-03T09:09:52;31.00;47.30
4578;DHT22;2301;47.354;8.528;2022-07-03T09:12:21;31.10;47.70
4578;DHT22;2301;47.354;8.528;2022-07-03T09:14:48;31.30;46.30
4578;DHT22;2301;47.354;8.528;2022-07-03T09:17:15;31.50;45.90
4578;DHT22;2301;47.354;8.528;2022-07-03T09:19:44;31.70;43.80
4578;DHT22;2301;47.354;8.528;2022-07-03T09:22:23;31.90;41.90
4578;DHT22;2301;47.354;8.528;2022-07-03T09:24:51;32.10;42.10
4578;DHT22;2301;47.354;8.528;2022-07-03T09:27:21;32.30;41.60
4578;DHT22;2301;47.354;8.528;2022-07-03T09:29:57;32.30;41.30
4578;DHT22;2301;47.354;8.528;2022-07-03T09:32:25;32.50;41.10
4578;DHT22;2301;47.354;8.528;2022-07-03T09:35:17;32.60;40.80
4578;DHT22;2301;47.354;8.528;2022-07-03T09:37:48;32.80;42.00
4578;DHT22;2301;47.354;8.528;2022-07-03T09:40:15;33.00;41.60
4578;DHT22;2301;47.354;8.528;2022-07-03T09:42:58;33.30;41.50
4578;DHT22;2301;47.354;8.528;2022-07-03T14:27:42;34.10;36.90
4578;DHT22;2301;47.354;8.528;2022-07-03T14:30:27;34.10;37.50
4578;DHT22;2301;47.354;8.528;2022-07-03T14:33:11;34.10;36.70
4578;DHT22;2301;47.354;8.528;2022-07-03T14:35:41;34.10;36.50
4578;DHT22;2301;47.354;8.528;2022-07-03T14:38:08;33.90;36.60
4578;DHT22;2301;47.354;8.528;2022-07-03T14:43:24;33.50;37.60
4578;DHT22;2301;47.354;8.528;2022-07-03T14:45:56;33.50;38.40
4578;DHT22;2301;47.354;8.528;2022-07-03T14:48:23;33.40;38.70
4578;DHT22;2301;47.354;8.528;2022-07-03T14:50:50;33.30;38.60
4578;DHT22;2301;47.354;8.528;2022-07-03T14:53:21;33.20;39.20
4578;DHT22;2301;47.354;8.528;2022-07-03T14:55:49;33.00;39.70
4578;DHT22;2301;47.354;8.528;2022-07-03T14:58:18;32.90;40.00
4578;DHT22;2301;47.354;8.528;2022-07-03T15:00:53;32.90;40.40
4578;DHT22;2301;47.354;8.528;2022-07-03T15:03:27;32.80;41.30
4578;DHT22;2301;47.354;8.528;2022-07-03T15:05:55;32.80;40.50
4578;DHT22;2301;47.354;8.528;2022-07-03T15:08:47;32.80;39.30
4578;DHT22;2301;47.354;8.528;2022-07-03T15:11:20;32.80;39.80
4578;DHT22;2301;47.354;8.528;2022-07-03T15:14:05;32.90;41.20
4578;DHT22;2301;47.354;8.528;2022-07-03T15:16:36;33.00;40.70
4578;DHT22;2301;47.354;8.528;2022-07-03T15:19:09;33.20;40.40
4578;DHT22;2301;47.354;8.528;2022-07-03T15:21:37;33.20;40.10
4578;DHT22;2301;47.354;8.528;2022-07-03T15:24:06;33.20;40.70
4578;DHT22;2301;47.354;8.528;2022-07-03T15:26:34;33.30;40.10
4578;DHT22;2301;47.354;8.528;2022-07-03T15:29:04;33.30;39.70
4578;DHT22;2301;47.354;8.528;2022-07-03T15:31:35;33.30;39.40
4578;DHT22;2301;47.354;8.528;2022-07-03T15:34:05;33.30;39.40
4578;DHT22;2301;47.354;8.528;2022-07-03T15:36:41;33.20;39.40
4578;DHT22;2301;47.354;8.528;2022-07-03T15:39:15;33.30;39.50
4578;DHT22;2301;47.354;8.528;2022-07-03T15:41:56;33.20;39.10
4578;DHT22;2301;47.354;8.528;2022-07-03T15:44:31;33.10;40.70
4578;DHT22;2301;47.354;8.528;2022-07-03T15:47:36;32.90;40.50
4578;DHT22;2301;47.354;8.528;2022-07-03T15:50:05;32.80;41.60
4578;DHT22;2301;47.354;8.528;2022-07-03T15:52:37;32.60;41.40
4578;DHT22;2301;47.354;8.528;2022-07-03T15:55:06;32.50;41.50
4578;DHT22;2301;47.354;8.528;2022-07-03T15:57:45;32.40;41.70
4578;DHT22;2301;47.354;8.528;2022-07-03T16:03:45;32.30;42.10
4578;DHT22;2301;47.354;8.528;2022-07-03T16:06:15;32.30;42.60
4578;DHT22;2301;47.354;8.528;2022-07-03T16:08:42;32.40;42.70
4578;DHT22;2301;47.354;8.528;2022-07-03T16:11:13;32.40;43.00
4578;DHT22;2301;47.354;8.528;2022-07-03T16:13:41;32.40;42.70
4578;DHT22;2301;47.354;8.528;2022-07-03T16:16:22;32.50;42.00
4578;DHT22;2301;47.354;8.528;2022-07-03T16:18:58;32.50;42.80
4578;DHT22;2301;47.354;8.528;2022-07-03T16:21:27;32.50;42.20
4578;DHT22;2301;47.354;8.528;2022-07-03T16:23:55;32.50;41.90
4578;DHT22;2301;47.354;8.528;2022-07-03T16:26:22;32.50;42.40
4578;DHT22;2301;47.354;8.528;2022-07-03T16:28:51;32.40;41.90
4578;DHT22;2301;47.354;8.528;2022-07-03T16:31:23;32.50;42.20
4578;DHT22;2301;47.354;8.528;2022-07-03T16:33:56;32.50;42.40
4578;DHT22;2301;47.354;8.528;2022-07-03T16:36:30;32.50;42.20
4578;DHT22;2301;47.354;8.528;2022-07-03T16:39:03;32.50;41.80
4578;DHT22;2301;47.354;8.528;2022-07-03T16:41:33;32.40;42.00
4578;DHT22;2301;47.354;8.528;2022-07-03T16:44:03;32.40;42.00
4578;DHT22;2301;47.354;8.528;2022-07-03T16:46:31;32.40;41.60
4578;DHT22;2301;47.354;8.528;2022-07-03T16:49:00;32.40;41.60
4578;DHT22;2301;47.354;8.528;2022-07-03T16:51:30;32.40;41.80
4578;DHT22;2301;47.354;8.528;2022-07-03T16:54:00;32.40;42.60
4578;DHT22;2301;47.354;8.528;2022-07-03T16:56:28;32.30;43.30
4578;DHT22;2301;47.354;8.528;2022-07-03T16:58:58;32.30;43.50
4578;DHT22;2301;47.354;8.528;2022-07-03T17:01:25;32.20;43.50
4578;DHT22;2301;47.354;8.528;2022-07-03T17:03:53;32.20;43.70
4578;DHT22;2301;47.354;8.528;2022-07-03T17:06:24;32.20;43.70
4578;DHT22;2301;47.354;8.528;2022-07-03T17:08:51;32.10;44.20
4578;DHT22;2301;47.354;8.528;2022-07-03T17:11:20;32.00;44.30
4578;DHT22;2301;47.354;8.528;2022-07-03T17:13:47;32.00;44.50
4578;DHT22;2301;47.354;8.528;2022-07-03T17:16:16;31.90;44.50
4578;DHT22;2301;47.354;8.528;2022-07-03T17:18:47;31.80;45.10
4578;DHT22;2301;47.354;8.528;2022-07-03T17:21:17;31.80;44.80
4578;DHT22;2301;47.354;8.528;2022-07-03T17:23:48;31.70;45.10
4578;DHT22;2301;47.354;8.528;2022-07-03T17:26:18;31.70;45.10
4578;DHT22;2301;47.354;8.528;2022-07-03T17:28:47;31.60;45.30
4578;DHT22;2301;47.354;8.528;2022-07-03T17:31:16;31.60;45.30
4578;DHT22;2301;47.354;8.528;2022-07-03T17:33:44;31.60;45.40
4578;DHT22;2301;47.354;8.528;2022-07-03T17:36:17;31.60;45.80
4578;DHT22;2301;47.354;8.528;2022-07-03T17:38:49;31.60;45.60
4578;DHT22;2301;47.354;8.528;2022-07-03T17:41:19;31.50;46.10
4578;DHT22;2301;47.354;8.528;2022-07-03T17:43:47;31.50;45.60
4578;DHT22;2301;47.354;8.528;2022-07-03T17:46:15;31.40;46.20
4578;DHT22;2301;47.354;8.528;2022-07-03T17:48:43;31.40;47.00
4578;DHT22;2301;47.354;8.528;2022-07-03T17:51:12;31.40;47.50
4578;DHT22;2301;47.354;8.528;2022-07-03T17:53:40;31.40;47.90
4578;DHT22;2301;47.354;8.528;2022-07-03T17:56:11;31.30;47.90
4578;DHT22;2301;47.354;8.528;2022-07-03T17:58:39;31.30;48.10
4578;DHT22;2301;47.354;8.528;2022-07-03T18:01:07;31.20;48.30
4578;DHT22;2301;47.354;8.528;2022-07-03T18:03:34;31.10;48.50
4578;DHT22;2301;47.354;8.528;2022-07-03T18:06:02;31.00;48.50
4578;DHT22;2301;47.354;8.528;2022-07-03T18:08:35;30.90;48.70
4578;DHT22;2301;47.354;8.528;2022-07-03T18:11:11;30.80;49.00
4578;DHT22;2301;47.354;8.528;2022-07-03T18:13:45;30.80;50.20
4578;DHT22;2301;47.354;8.528;2022-07-03T18:16:15;30.60;49.70
4578;DHT22;2301;47.354;8.528;2022-07-03T18:18:44;30.50;49.70
4578;DHT22;2301;47.354;8.528;2022-07-03T18:21:12;30.40;48.60
4578;DHT22;2301;47.354;8.528;2022-07-03T18:23:47;30.40;48.20
4578;DHT22;2301;47.354;8.528;2022-07-03T18:26:25;30.30;48.40
4578;DHT22;2301;47.354;8.528;2022-07-03T18:28:54;30.20;48.20
4578;DHT22;2301;47.354;8.528;2022-07-03T18:31:21;30.20;48.20
4578;DHT22;2301;47.354;8.528;2022-07-03T18:33:50;30.20;48.20
4578;DHT22;2301;47.354;8.528;2022-07-03T18:36:18;30.10;48.40
4578;DHT22;2301;47.354;8.528;2022-07-03T18:38:46;30.10;49.60
4578;DHT22;2301;47.354;8.528;2022-07-03T18:41:14;30.00;50.40
4578;DHT22;2301;47.354;8.528;2022-07-03T18:43:43;29.90;51.10
4578;DHT22;2301;47.354;8.528;2022-07-03T18:46:10;29.90;51.60
4578;DHT22;2301;47.354;8.528;2022-07-03T18:48:37;29.80;51.90
4578;DHT22;2301;47.354;8.528;2022-07-03T18:51:08;29.80;51.90
4578;DHT22;2301;47.354;8.528;2022-07-03T18:53:47;29.70;51.50
4578;DHT22;2301;47.354;8.528;2022-07-03T18:56:28;29.70;51.30
4578;DHT22;2301;47.354;8.528;2022-07-03T18:59:00;29.60;51.80
4578;DHT22;2301;47.354;8.528;2022-07-03T19:01:30;29.50;51.30
4578;DHT22;2301;47.354;8.528;2022-07-03T19:04:04;29.40;51.40
4578;DHT22;2301;47.354;8.528;2022-07-03T19:06:37;29.40;51.80
4578;DHT22;2301;47.354;8.528;2022-07-03T19:09:05;29.30;52.10
4578;DHT22;2301;47.354;8.528;2022-07-03T19:11:34;29.20;52.20
4578;DHT22;2301;47.354;8.528;2022-07-03T19:14:05;29.20;52.20
4578;DHT22;2301;47.354;8.528;2022-07-03T19:16:38;29.10;52.30
4578;DHT22;2301;47.354;8.528;2022-07-03T19:19:06;29.00;52.60
4578;DHT22;2301;47.354;8.528;2022-07-03T19:21:33;28.90;53.10
4578;DHT22;2301;47.354;8.528;2022-07-03T19:24:00;28.90;53.30
4578;DHT22;2301;47.354;8.528;2022-07-03T19:26:27;28.80;53.20
4578;DHT22;2301;47.354;8.528;2022-07-03T19:28:53;28.80;53.30
4578;DHT22;2301;47.354;8.528;2022-07-03T19:31:22;28.70;53.50
4578;DHT22;2301;47.354;8.528;2022-07-03T19:33:50;28.70;53.60
4578;DHT22;2301;47.354;8.528;2022-07-03T19:36:17;28.60;53.60
4578;DHT22;2301;47.354;8.528;2022-07-03T19:38:45;28.60;53.90
4578;DHT22;2301;47.354;8.528;2022-07-03T19:41:12;28.50;53.80
4578;DHT22;2301;47.354;8.528;2022-07-03T19:43:39;28.50;53.80
4578;DHT22;2301;47.354;8.528;2022-07-03T19:46:07;28.50;53.80
4578;DHT22;2301;47.354;8.528;2022-07-03T19:48:35;28.50;53.70
4578;DHT22;2301;47.354;8.528;2022-07-03T19:51:02;28.40;54.00
4578;DHT22;2301;47.354;8.528;2022-07-03T19:53:29;28.40;54.00
4578;DHT22;2301;47.354;8.528;2022-07-03T19:55:57;28.30;54.00
4578;DHT22;2301;47.354;8.528;2022-07-03T19:58:24;28.30;53.30
4578;DHT22;2301;47.354;8.528;2022-07-03T20:00:51;28.30;53.10
4578;DHT22;2301;47.354;8.528;2022-07-03T20:03:18;28.20;53.00
4578;DHT22;2301;47.354;8.528;2022-07-03T20:05:47;28.20;53.10
4578;DHT22;2301;47.354;8.528;2022-07-03T20:08:14;28.20;53.00
4578;DHT22;2301;47.354;8.528;2022-07-03T20:10:41;28.20;52.60
4578;DHT22;2301;47.354;8.528;2022-07-03T20:13:08;28.20;52.60
4578;DHT22;2301;47.354;8.528;2022-07-03T20:15:35;28.10;52.60
4578;DHT22;2301;47.354;8.528;2022-07-03T20:18:02;28.20;52.20
4578;DHT22;2301;47.354;8.528;2022-07-03T20:20:29;28.10;51.70
4578;DHT22;2301;47.354;8.528;2022-07-03T20:22:58;28.10;51.40
4578;DHT22;2301;47.354;8.528;2022-07-03T20:25:26;28.10;52.50
4578;DHT22;2301;47.354;8.528;2022-07-03T20:27:56;28.10;51.70
4578;DHT22;2301;47.354;8.528;2022-07-03T20:30:24;28.00;51.30
4578;DHT22;2301;47.354;8.528;2022-07-03T20:32:51;28.00;51.10
4578;DHT22;2301;47.354;8.528;2022-07-03T20:35:19;28.00;50.90
4578;DHT22;2301;47.354;8.528;2022-07-03T20:37:46;28.00;51.00
4578;DHT22;2301;47.354;8.528;2022-07-03T20:40:14;28.00;51.30
4578;DHT22;2301;47.354;8.528;2022-07-03T20:42:41;28.00;51.40
4578;DHT22;2301;47.354;8.528;2022-07-03T20:45:09;27.90;51.90
4578;DHT22;2301;47.354;8.528;2022-07-03T20:47:36;27.90;52.50
4578;DHT22;2301;47.354;8.528;2022-07-03T20:50:04;27.90;52.00
4578;DHT22;2301;47.354;8.528;2022-07-03T20:52:32;27.80;52.20
4578;DHT22;2301;47.354;8.528;2022-07-03T20:54:59;27.80;53.50
4578;DHT22;2301;47.354;8.528;2022-07-03T20:57:27;27.80;53.60
4578;DHT22;2301;47.354;8.528;2022-07-03T20:59:54;27.70;53.40
4578;DHT22;2301;47.354;8.528;2022-07-03T21:02:21;27.70;54.00
4578;DHT22;2301;47.354;8.528;2022-07-03T21:04:48;27.60;53.80
4578;DHT22;2301;47.354;8.528;2022-07-03T21:07:15;27.60;53.50